sensor_id;sensor_type;location;lat;lon;timestamp;P1;durP1;ratioP1;P2;durP2;ratioP2
33162;SDS011;29282;45.656;11.302;2023-02-01T00:02:19;10.93;;;7.50;;
33162;SDS011;29282;45.656;11.302;2023-02-01T00:04:44;9.63;;;7.40;;
33162;SDS011;29282;45.656;11.302;2023-02-01T00:07:10;9.00;;;6.90;;
33162;SDS011;29282;45.656;11.302;2023-02-01T00:09:35;10.63;;;7.43;;
33162;SDS011;29282;45.656;11.302;2023-02-01T00:12:01;10.52;;;7.07;;
33162;SDS011;29282;45.656;11.302;2023-02-01T00:14:28;9.02;;;6.90;;
33162;SDS011;29282;45.656;11.302;2023-02-01T00:17:03;9.93;;;7.38;;
33162;SDS011;29282;45.656;11.302;2023-02-01T00:19:32;8.40;;;6.75;;
33162;SDS011;29282;45.656;11.302;2023-02-01T00:21:58;12.05;;;6.88;;
33162;SDS011;29282;45.656;11.302;2023-02-01T00:24:24;11.10;;;6.88;;
33162;SDS011;29282;45.656;11.302;2023-02-01T00:26:52;8.15;;;6.68;;
33162;SDS011;29282;45.656;11.302;2023-02-01T00:29:19;9.05;;;6.82;;
33162;SDS011;29282;45.656;11.302;2023-02-01T00:31:45;8.88;;;6.68;;
33162;SDS011;29282;45.656;11.302;2023-02-01T00:34:14;9.70;;;6.97;;
33162;SDS011;29282;45.656;11.302;2023-02-01T00:36:41;9.60;;;7.05;;
33162;SDS011;29282;45.656;11.302;2023-02-01T00:39:07;9.40;;;7.55;;
33162;SDS011;29282;45.656;11.302;2023-02-01T00:41:34;8.48;;;6.15;;
33162;SDS011;29282;45.656;11.302;2023-02-01T00:43:59;8.75;;;7.40;;
33162;SDS011;29282;45.656;11.302;2023-02-01T00:46:26;7.85;;;6.43;;
33162;SDS011;29282;45.656;11.302;2023-02-01T00:48:52;8.48;;;6.30;;
33162;SDS011;29282;45.656;11.302;2023-02-01T00:51:22;9.45;;;7.13;;
33162;SDS011;29282;45.656;11.302;2023-02-01T00:53:49;9.50;;;6.40;;
33162;SDS011;29282;45.656;11.302;2023-02-01T00:56:15;8.65;;;6.60;;
33162;SDS011;29282;45.656;11.302;2023-02-01T00:58:41;7.57;;;6.20;;
33162;SDS011;29282;45.656;11.302;2023-02-01T01:03:44;9.05;;;6.78;;
33162;SDS011;29282;45.656;11.302;2023-02-01T01:06:16;11.52;;;7.00;;
33162;SDS011;29282;45.656;11.302;2023-02-01T01:08:45;8.85;;;7.05;;
33162;SDS011;29282;45.656;11.302;2023-02-01T01:11:11;9.05;;;6.72;;
33162;SDS011;29282;45.656;11.302;2023-02-01T01:13:39;8.07;;;6.63;;
33162;SDS011;29282;45.656;11.302;2023-02-01T01:16:06;9.77;;;7.00;;
33162;SDS011;29282;45.656;11.302;2023-02-01T01:18:35;8.45;;;6.35;;
33162;SDS011;29282;45.656;11.302;2023-02-01T01:21:01;7.13;;;6.20;;
33162;SDS011;29282;45.656;11.302;2023-02-01T01:23:28;8.23;;;6.15;;
33162;SDS011;29282;45.656;11.302;2023-02-01T01:25:54;8.27;;;6.30;;
33162;SDS011;29282;45.656;11.302;2023-02-01T01:28:20;9.73;;;6.35;;
33162;SDS011;29282;45.656;11.302;2023-02-01T01:30:45;10.10;;;6.97;;
33162;SDS011;29282;45.656;11.302;2023-02-01T01:33:11;7.70;;;6.10;;
33162;SDS011;29282;45.656;11.302;2023-02-01T01:35:37;8.68;;;6.30;;
33162;SDS011;29282;45.656;11.302;2023-02-01T01:38:02;8.10;;;6.18;;
33162;SDS011;29282;45.656;11.302;2023-02-01T01:40:29;8.32;;;6.68;;
33162;SDS011;29282;45.656;11.302;2023-02-01T01:42:55;8.07;;;6.18;;
33162;SDS011;29282;45.656;11.302;2023-02-01T01:45:27;7.13;;;6.13;;
33162;SDS011;29282;45.656;11.302;2023-02-01T01:48:08;8.00;;;6.68;;
33162;SDS011;29282;45.656;11.302;2023-02-01T01:50:40;11.02;;;6.30;;
33162;SDS011;29282;45.656;11.302;2023-02-01T01:53:13;9.15;;;5.95;;
33162;SDS011;29282;45.656;11.302;2023-02-01T01:55:43;7.47;;;6.07;;
33162;SDS011;29282;45.656;11.302;2023-02-01T01:58:14;7.88;;;6.13;;
33162;SDS011;29282;45.656;11.302;2023-02-01T02:00:43;7.78;;;6.10;;
33162;SDS011;29282;45.656;11.302;2023-02-01T02:03:25;9.35;;;6.93;;
33162;SDS011;29282;45.656;11.302;2023-02-01T02:05:57;7.63;;;6.15;;
33162;SDS011;29282;45.656;11.302;2023-02-01T02:08:25;7.03;;;6.22;;
33162;SDS011;29282;45.656;11.302;2023-02-01T02:10:52;7.72;;;6.10;;
33162;SDS011;29282;45.656;11.302;2023-02-01T02:13:28;7.32;;;5.97;;
33162;SDS011;29282;45.656;11.302;2023-02-01T02:49:02;6.78;;;5.55;;
33162;SDS011;29282;45.656;11.302;2023-02-01T02:54:26;7.22;;;5.75;;
33162;SDS011;29282;45.656;11.302;2023-02-01T03:00:09;7.07;;;6.03;;
33162;SDS011;29282;45.656;11.302;2023-02-01T03:02:57;9.23;;;6.05;;
33162;SDS011;29282;45.656;11.302;2023-02-01T03:05:45;7.07;;;5.47;;
33162;SDS011;29282;45.656;11.302;2023-02-01T03:08:14;6.45;;;5.22;;
33162;SDS011;29282;45.656;11.302;2023-02-01T03:13:28;7.43;;;5.78;;
33162;SDS011;29282;45.656;11.302;2023-02-01T03:16:21;7.40;;;6.13;;
33162;SDS011;29282;45.656;11.302;2023-02-01T03:18:53;7.80;;;5.95;;
33162;SDS011;29282;45.656;11.302;2023-02-01T03:21:41;6.63;;;5.85;;
33162;SDS011;29282;45.656;11.302;2023-02-01T03:24:15;6.35;;;5.75;;
33162;SDS011;29282;45.656;11.302;2023-02-01T03:26:52;6.60;;;5.22;;
33162;SDS011;29282;45.656;11.302;2023-02-01T03:29:32;8.13;;;5.93;;
33162;SDS011;29282;45.656;11.302;2023-02-01T03:32:03;7.05;;;5.60;;
33162;SDS011;29282;45.656;11.302;2023-02-01T03:34:28;7.50;;;5.65;;
33162;SDS011;29282;45.656;11.302;2023-02-01T03:37:02;5.90;;;5.25;;
33162;SDS011;29282;45.656;11.302;2023-02-01T03:39:32;7.50;;;6.25;;
33162;SDS011;29282;45.656;11.302;2023-02-01T03:42:00;7.47;;;5.63;;
33162;SDS011;29282;45.656;11.302;2023-02-01T03:44:40;7.28;;;5.45;;
33162;SDS011;29282;45.656;11.302;2023-02-01T03:47:15;8.00;;;5.72;;
33162;SDS011;29282;45.656;11.302;2023-02-01T03:49:46;6.57;;;5.28;;
33162;SDS011;29282;45.656;11.302;2023-02-01T03:52:17;8.32;;;5.85;;
33162;SDS011;29282;45.656;11.302;2023-02-01T03:54:48;5.93;;;5.32;;
33162;SDS011;29282;45.656;11.302;2023-02-01T03:57:16;7.60;;;5.82;;
33162;SDS011;29282;45.656;11.302;2023-02-01T03:59:50;6.25;;;5.05;;
33162;SDS011;29282;45.656;11.302;2023-02-01T04:02:16;6.97;;;5.85;;
33162;SDS011;29282;45.656;11.302;2023-02-01T04:04:44;5.88;;;5.13;;
33162;SDS011;29282;45.656;11.302;2023-02-01T04:07:10;6.97;;;5.47;;
33162;SDS011;29282;45.656;11.302;2023-02-01T04:09:35;7.65;;;5.28;;
33162;SDS011;29282;45.656;11.302;2023-02-01T04:12:01;5.97;;;5.28;;
33162;SDS011;29282;45.656;11.302;2023-02-01T04:14:29;6.85;;;5.20;;
33162;SDS011;29282;45.656;11.302;2023-02-01T04:16:56;6.38;;;5.25;;
33162;SDS011;29282;45.656;11.302;2023-02-01T04:19:21;7.03;;;5.30;;
33162;SDS011;29282;45.656;11.302;2023-02-01T04:21:47;6.88;;;5.45;;
33162;SDS011;29282;45.656;11.302;2023-02-01T04:24:12;6.07;;;5.18;;
33162;SDS011;29282;45.656;11.302;2023-02-01T04:26:37;6.43;;;5.22;;
33162;SDS011;29282;45.656;11.302;2023-02-01T04:29:03;6.65;;;5.53;;
33162;SDS011;29282;45.656;11.302;2023-02-01T04:31:28;6.25;;;5.03;;
33162;SDS011;29282;45.656;11.302;2023-02-01T04:33:54;5.93;;;4.90;;
33162;SDS011;29282;45.656;11.302;2023-02-01T04:36:22;5.78;;;5.05;;
33162;SDS011;29282;45.656;11.302;2023-02-01T04:38:48;6.47;;;5.20;;
33162;SDS011;29282;45.656;11.302;2023-02-01T04:41:14;6.30;;;5.00;;
33162;SDS011;29282;45.656;11.302;2023-02-01T04:43:43;6.47;;;5.55;;
33162;SDS011;29282;45.656;11.302;2023-02-01T04:46:11;6.40;;;5.18;;
33162;SDS011;29282;45.656;11.302;2023-02-01T04:48:37;5.53;;;5.00;;
33162;SDS011;29282;45.656;11.302;2023-02-01T04:51:03;7.10;;;5.38;;
33162;SDS011;29282;45.656;11.302;2023-02-01T04:53:28;6.72;;;4.53;;
33162;SDS011;29282;45.656;11.302;2023-02-01T04:55:55;6.53;;;5.18;;
33162;SDS011;29282;45.656;11.302;2023-02-01T04:58:20;9.02;;;4.78;;
33162;SDS011;29282;45.656;11.302;2023-02-01T05:00:46;8.68;;;4.80;;
33162;SDS011;29282;45.656;11.302;2023-02-01T05:03:11;7.20;;;5.35;;
33162;SDS011;29282;45.656;11.302;2023-02-01T05:05:37;9.30;;;5.45;;
33162;SDS011;29282;45.656;11.302;2023-02-01T05:08:02;9.98;;;5.95;;
33162;SDS011;29282;45.656;11.302;2023-02-01T05:10:28;11.40;;;5.28;;
33162;SDS011;29282;45.656;11.302;2023-02-01T05:12:54;9.23;;;5.38;;
33162;SDS011;29282;45.656;11.302;2023-02-01T05:15:38;11.60;;;6.30;;
33162;SDS011;29282;45.656;11.302;2023-02-01T05:18:03;10.90;;;5.55;;
33162;SDS011;29282;45.656;11.302;2023-02-01T05:20:29;10.65;;;6.00;;
33162;SDS011;29282;45.656;11.302;2023-02-01T05:22:54;6.55;;;5.40;;
33162;SDS011;29282;45.656;11.302;2023-02-01T05:25:20;14.07;;;5.45;;
33162;SDS011;29282;45.656;11.302;2023-02-01T05:27:45;9.40;;;5.68;;
33162;SDS011;29282;45.656;11.302;2023-02-01T05:30:11;10.52;;;6.10;;
33162;SDS011;29282;45.656;11.302;2023-02-01T05:32:37;10.43;;;6.15;;
33162;SDS011;29282;45.656;11.302;2023-02-01T05:35:02;10.00;;;6.18;;
33162;SDS011;29282;45.656;11.302;2023-02-01T05:37:28;11.85;;;5.93;;
33162;SDS011;29282;45.656;11.302;2023-02-01T05:39:53;8.10;;;5.75;;
33162;SDS011;29282;45.656;11.302;2023-02-01T05:42:19;10.05;;;5.80;;
33162;SDS011;29282;45.656;11.302;2023-02-01T05:44:44;8.05;;;5.97;;
33162;SDS011;29282;45.656;11.302;2023-02-01T05:47:10;10.07;;;5.88;;
33162;SDS011;29282;45.656;11.302;2023-02-01T05:49:35;11.02;;;6.22;;
33162;SDS011;29282;45.656;11.302;2023-02-01T05:52:01;8.43;;;5.68;;
33162;SDS011;29282;45.656;11.302;2023-02-01T05:54:27;7.85;;;5.50;;
33162;SDS011;29282;45.656;11.302;2023-02-01T05:56:53;7.30;;;5.45;;
33162;SDS011;29282;45.656;11.302;2023-02-01T05:59:18;10.93;;;5.85;;
33162;SDS011;29282;45.656;11.302;2023-02-01T06:01:43;10.05;;;5.70;;
33162;SDS011;29282;45.656;11.302;2023-02-01T06:04:09;9.57;;;5.40;;
33162;SDS011;29282;45.656;11.302;2023-02-01T06:06:35;9.25;;;5.70;;
33162;SDS011;29282;45.656;11.302;2023-02-01T06:09:01;10.80;;;5.72;;
33162;SDS011;29282;45.656;11.302;2023-02-01T06:11:28;9.27;;;5.40;;
33162;SDS011;29282;45.656;11.302;2023-02-01T06:13:53;6.68;;;4.90;;
33162;SDS011;29282;45.656;11.302;2023-02-01T06:16:20;9.25;;;5.85;;
33162;SDS011;29282;45.656;11.302;2023-02-01T06:18:46;6.85;;;5.20;;
33162;SDS011;29282;45.656;11.302;2023-02-01T06:21:12;11.07;;;5.47;;
33162;SDS011;29282;45.656;11.302;2023-02-01T06:23:39;8.77;;;5.30;;
33162;SDS011;29282;45.656;11.302;2023-02-01T06:26:06;8.48;;;5.60;;
33162;SDS011;29282;45.656;11.302;2023-02-01T06:28:35;7.22;;;5.10;;
33162;SDS011;29282;45.656;11.302;2023-02-01T06:31:04;7.15;;;5.13;;
33162;SDS011;29282;45.656;11.302;2023-02-01T06:33:32;7.53;;;5.25;;
33162;SDS011;29282;45.656;11.302;2023-02-01T06:35:59;6.53;;;5.63;;
33162;SDS011;29282;45.656;11.302;2023-02-01T06:38:26;7.57;;;4.97;;
33162;SDS011;29282;45.656;11.302;2023-02-01T06:40:52;6.20;;;5.03;;
33162;SDS011;29282;45.656;11.302;2023-02-01T06:43:19;6.32;;;5.18;;
33162;SDS011;29282;45.656;11.302;2023-02-01T06:45:44;6.40;;;5.35;;
33162;SDS011;29282;45.656;11.302;2023-02-01T06:48:13;8.18;;;5.20;;
33162;SDS011;29282;45.656;11.302;2023-02-01T06:50:38;6.65;;;5.30;;
33162;SDS011;29282;45.656;11.302;2023-02-01T06:53:03;8.73;;;5.50;;
33162;SDS011;29282;45.656;11.302;2023-02-01T06:55:29;16.20;;;5.97;;
33162;SDS011;29282;45.656;11.302;2023-02-01T06:57:55;11.02;;;5.90;;
33162;SDS011;29282;45.656;11.302;2023-02-01T07:00:24;10.77;;;6.22;;
33162;SDS011;29282;45.656;11.302;2023-02-01T07:02:49;9.13;;;6.13;;
33162;SDS011;29282;45.656;11.302;2023-02-01T07:05:15;12.30;;;6.78;;
33162;SDS011;29282;45.656;11.302;2023-02-01T07:07:41;10.75;;;6.13;;
33162;SDS011;29282;45.656;11.302;2023-02-01T07:10:07;7.63;;;5.82;;
33162;SDS011;29282;45.656;11.302;2023-02-01T07:12:33;11.77;;;6.80;;
33162;SDS011;29282;45.656;11.302;2023-02-01T07:14:59;8.60;;;6.40;;
33162;SDS011;29282;45.656;11.302;2023-02-01T07:17:26;12.32;;;6.78;;
33162;SDS011;29282;45.656;11.302;2023-02-01T07:19:54;10.75;;;6.82;;
33162;SDS011;29282;45.656;11.302;2023-02-01T07:22:19;10.07;;;7.18;;
33162;SDS011;29282;45.656;11.302;2023-02-01T07:24:45;10.57;;;6.85;;
33162;SDS011;29282;45.656;11.302;2023-02-01T07:27:10;8.82;;;6.53;;
33162;SDS011;29282;45.656;11.302;2023-02-01T07:29:36;13.88;;;7.10;;
33162;SDS011;29282;45.656;11.302;2023-02-01T07:32:01;10.52;;;6.72;;
33162;SDS011;29282;45.656;11.302;2023-02-01T07:34:27;12.00;;;6.30;;
33162;SDS011;29282;45.656;11.302;2023-02-01T07:36:53;9.93;;;6.35;;
33162;SDS011;29282;45.656;11.302;2023-02-01T07:39:18;11.30;;;6.93;;
33162;SDS011;29282;45.656;11.302;2023-02-01T07:41:45;14.57;;;6.50;;
33162;SDS011;29282;45.656;11.302;2023-02-01T07:44:11;10.38;;;6.80;;
33162;SDS011;29282;45.656;11.302;2023-02-01T07:46:36;10.30;;;6.60;;
33162;SDS011;29282;45.656;11.302;2023-02-01T07:49:04;10.52;;;7.20;;
33162;SDS011;29282;45.656;11.302;2023-02-01T07:51:30;12.32;;;6.45;;
33162;SDS011;29282;45.656;11.302;2023-02-01T07:53:55;9.20;;;6.57;;
33162;SDS011;29282;45.656;11.302;2023-02-01T07:56:21;9.82;;;6.90;;
33162;SDS011;29282;45.656;11.302;2023-02-01T07:58:51;12.10;;;6.82;;
33162;SDS011;29282;45.656;11.302;2023-02-01T08:01:23;12.00;;;6.82;;
33162;SDS011;29282;45.656;11.302;2023-02-01T08:03:57;10.48;;;6.88;;
33162;SDS011;29282;45.656;11.302;2023-02-01T08:06:27;8.38;;;5.93;;
33162;SDS011;29282;45.656;11.302;2023-02-01T08:08:53;9.52;;;6.97;;
33162;SDS011;29282;45.656;11.302;2023-02-01T08:11:19;11.98;;;7.03;;
33162;SDS011;29282;45.656;11.302;2023-02-01T08:13:46;8.45;;;6.55;;
33162;SDS011;29282;45.656;11.302;2023-02-01T08:16:12;11.63;;;6.80;;
33162;SDS011;29282;45.656;11.302;2023-02-01T08:18:39;9.38;;;6.38;;
33162;SDS011;29282;45.656;11.302;2023-02-01T08:23:31;8.00;;;6.43;;
33162;SDS011;29282;45.656;11.302;2023-02-01T08:28:38;8.65;;;6.53;;
33162;SDS011;29282;45.656;11.302;2023-02-01T08:31:06;8.63;;;6.85;;
33162;SDS011;29282;45.656;11.302;2023-02-01T08:33:36;20.00;;;6.93;;
33162;SDS011;29282;45.656;11.302;2023-02-01T08:36:06;9.68;;;6.50;;
33162;SDS011;29282;45.656;11.302;2023-02-01T08:38:32;10.80;;;6.45;;
33162;SDS011;29282;45.656;11.302;2023-02-01T08:41:04;14.82;;;7.05;;
33162;SDS011;29282;45.656;11.302;2023-02-01T08:43:31;12.30;;;6.80;;
33162;SDS011;29282;45.656;11.302;2023-02-01T08:45:56;9.07;;;6.55;;
33162;SDS011;29282;45.656;11.302;2023-02-01T08:48:22;10.10;;;6.55;;
33162;SDS011;29282;45.656;11.302;2023-02-01T08:50:47;7.95;;;6.05;;
33162;SDS011;29282;45.656;11.302;2023-02-01T08:53:12;7.80;;;6.40;;
33162;SDS011;29282;45.656;11.302;2023-02-01T08:55:39;8.10;;;5.75;;
33162;SDS011;29282;45.656;11.302;2023-02-01T08:58:04;9.32;;;6.85;;
33162;SDS011;29282;45.656;11.302;2023-02-01T09:00:30;8.05;;;6.18;;
33162;SDS011;29282;45.656;11.302;2023-02-01T09:02:55;10.00;;;5.93;;
33162;SDS011;29282;45.656;11.302;2023-02-01T09:05:21;8.95;;;6.30;;
33162;SDS011;29282;45.656;11.302;2023-02-01T09:07:48;8.88;;;6.47;;
33162;SDS011;29282;45.656;11.302;2023-02-01T09:10:13;7.18;;;6.43;;
33162;SDS011;29282;45.656;11.302;2023-02-01T09:12:39;9.32;;;6.47;;
33162;SDS011;29282;45.656;11.302;2023-02-01T09:15:04;8.10;;;6.90;;
33162;SDS011;29282;45.656;11.302;2023-02-01T09:17:32;8.65;;;6.55;;
33162;SDS011;29282;45.656;11.302;2023-02-01T09:19:57;9.05;;;6.15;;
33162;SDS011;29282;45.656;11.302;2023-02-01T09:22:23;9.75;;;6.53;;
33162;SDS011;29282;45.656;11.302;2023-02-01T09:24:48;9.20;;;6.82;;
33162;SDS011;29282;45.656;11.302;2023-02-01T09:27:14;10.77;;;6.82;;
33162;SDS011;29282;45.656;11.302;2023-02-01T09:29:39;9.40;;;6.43;;
33162;SDS011;29282;45.656;11.302;2023-02-01T09:32:05;9.27;;;6.82;;
33162;SDS011;29282;45.656;11.302;2023-02-01T09:34:31;8.20;;;6.55;;
33162;SDS011;29282;45.656;11.302;2023-02-01T09:36:57;8.05;;;6.40;;
33162;SDS011;29282;45.656;11.302;2023-02-01T09:39:23;8.75;;;6.53;;
33162;SDS011;29282;45.656;11.302;2023-02-01T09:47:29;9.20;;;6.95;;
33162;SDS011;29282;45.656;11.302;2023-02-01T09:50:04;9.48;;;6.63;;
33162;SDS011;29282;45.656;11.302;2023-02-01T09:53:18;7.47;;;6.13;;
33162;SDS011;29282;45.656;11.302;2023-02-01T09:55:38;7.07;;;6.25;;
33162;SDS011;29282;45.656;11.302;2023-02-01T09:58:08;9.27;;;6.45;;
33162;SDS011;29282;45.656;11.302;2023-02-01T10:00:58;8.55;;;6.90;;
33162;SDS011;29282;45.656;11.302;2023-02-01T10:03:34;11.43;;;6.53;;
33162;SDS011;29282;45.656;11.302;2023-02-01T10:06:05;8.18;;;5.97;;
33162;SDS011;29282;45.656;11.302;2023-02-01T10:11:24;7.97;;;6.00;;
33162;SDS011;29282;45.656;11.302;2023-02-01T10:17:19;7.00;;;5.80;;
33162;SDS011;29282;45.656;11.302;2023-02-01T10:22:47;9.00;;;6.78;;
33162;SDS011;29282;45.656;11.302;2023-02-01T10:25:27;7.53;;;6.13;;
33162;SDS011;29282;45.656;11.302;2023-02-01T10:28:00;10.73;;;6.20;;
33162;SDS011;29282;45.656;11.302;2023-02-01T10:30:38;9.63;;;6.00;;
33162;SDS011;29282;45.656;11.302;2023-02-01T10:33:16;8.73;;;6.65;;
33162;SDS011;29282;45.656;11.302;2023-02-01T10:35:42;8.20;;;5.80;;
33162;SDS011;29282;45.656;11.302;2023-02-01T10:38:14;10.65;;;6.75;;
33162;SDS011;29282;45.656;11.302;2023-02-01T10:40:47;7.88;;;5.97;;
33162;SDS011;29282;45.656;11.302;2023-02-01T10:43:14;9.00;;;6.35;;
33162;SDS011;29282;45.656;11.302;2023-02-01T10:45:39;6.88;;;5.88;;
33162;SDS011;29282;45.656;11.302;2023-02-01T10:48:07;6.28;;;5.55;;
33162;SDS011;29282;45.656;11.302;2023-02-01T10:56:07;9.43;;;6.60;;
33162;SDS011;29282;45.656;11.302;2023-02-01T10:58:35;8.02;;;6.20;;
33162;SDS011;29282;45.656;11.302;2023-02-01T11:01:03;7.35;;;6.10;;
33162;SDS011;29282;45.656;11.302;2023-02-01T11:06:36;8.98;;;6.00;;
33162;SDS011;29282;45.656;11.302;2023-02-01T11:11:32;8.18;;;6.30;;
33162;SDS011;29282;45.656;11.302;2023-02-01T11:14:30;7.28;;;5.97;;
33162;SDS011;29282;45.656;11.302;2023-02-01T11:17:01;7.78;;;6.03;;
33162;SDS011;29282;45.656;11.302;2023-02-01T11:19:45;8.40;;;6.57;;
33162;SDS011;29282;45.656;11.302;2023-02-01T11:22:12;7.40;;;5.93;;
33162;SDS011;29282;45.656;11.302;2023-02-01T11:24:39;7.72;;;6.03;;
33162;SDS011;29282;45.656;11.302;2023-02-01T11:27:17;8.13;;;6.40;;
33162;SDS011;29282;45.656;11.302;2023-02-01T11:29:46;6.95;;;5.78;;
33162;SDS011;29282;45.656;11.302;2023-02-01T11:32:16;7.75;;;6.22;;
33162;SDS011;29282;45.656;11.302;2023-02-01T11:34:52;7.88;;;6.13;;
33162;SDS011;29282;45.656;11.302;2023-02-01T11:37:28;8.52;;;6.07;;
33162;SDS011;29282;45.656;11.302;2023-02-01T11:42:25;8.95;;;6.00;;
33162;SDS011;29282;45.656;11.302;2023-02-01T11:45:09;8.90;;;6.32;;
33162;SDS011;29282;45.656;11.302;2023-02-01T11:48:08;8.25;;;5.90;;
33162;SDS011;29282;45.656;11.302;2023-02-01T11:53:40;6.85;;;6.05;;
33162;SDS011;29282;45.656;11.302;2023-02-01T12:10:56;8.27;;;6.20;;
33162;SDS011;29282;45.656;11.302;2023-02-01T12:43:33;8.70;;;6.07;;
33162;SDS011;29282;45.656;11.302;2023-02-01T12:46:20;7.45;;;5.90;;
33162;SDS011;29282;45.656;11.302;2023-02-01T12:48:56;6.95;;;5.70;;
33162;SDS011;29282;45.656;11.302;2023-02-01T12:51:31;8.88;;;6.22;;
33162;SDS011;29282;45.656;11.302;2023-02-01T12:54:02;6.72;;;5.88;;
33162;SDS011;29282;45.656;11.302;2023-02-01T12:57:19;7.88;;;6.15;;
33162;SDS011;29282;45.656;11.302;2023-02-01T12:59:33;8.65;;;6.32;;
33162;SDS011;29282;45.656;11.302;2023-02-01T13:02:15;8.75;;;6.47;;
33162;SDS011;29282;45.656;11.302;2023-02-01T13:04:53;7.75;;;6.03;;
33162;SDS011;29282;45.656;11.302;2023-02-01T13:07:31;7.13;;;6.30;;
33162;SDS011;29282;45.656;11.302;2023-02-01T13:13:30;8.60;;;6.68;;
33162;SDS011;29282;45.656;11.302;2023-02-01T13:15:40;8.85;;;6.32;;
33162;SDS011;29282;45.656;11.302;2023-02-01T13:18:13;9.40;;;6.60;;
33162;SDS011;29282;45.656;11.302;2023-02-01T13:21:25;8.70;;;6.53;;
33162;SDS011;29282;45.656;11.302;2023-02-01T13:23:38;9.95;;;7.15;;
33162;SDS011;29282;45.656;11.302;2023-02-01T13:26:05;7.63;;;6.00;;
33162;SDS011;29282;45.656;11.302;2023-02-01T13:42:16;7.68;;;6.18;;
33162;SDS011;29282;45.656;11.302;2023-02-01T13:44:52;7.07;;;6.10;;
33162;SDS011;29282;45.656;11.302;2023-02-01T13:52:57;8.40;;;6.85;;
33162;SDS011;29282;45.656;11.302;2023-02-01T13:55:32;6.97;;;5.80;;
33162;SDS011;29282;45.656;11.302;2023-02-01T14:03:54;8.27;;;6.38;;
33162;SDS011;29282;45.656;11.302;2023-02-01T14:11:56;6.93;;;5.90;;
33162;SDS011;29282;45.656;11.302;2023-02-01T14:19:27;9.00;;;6.78;;
33162;SDS011;29282;45.656;11.302;2023-02-01T14:21:58;8.25;;;6.25;;
33162;SDS011;29282;45.656;11.302;2023-02-01T14:26:59;7.88;;;6.47;;
33162;SDS011;29282;45.656;11.302;2023-02-01T14:29:27;8.13;;;6.57;;
33162;SDS011;29282;45.656;11.302;2023-02-01T14:47:44;6.97;;;6.20;;
33162;SDS011;29282;45.656;11.302;2023-02-01T15:08:52;10.20;;;6.68;;
33162;SDS011;29282;45.656;11.302;2023-02-01T15:11:23;9.27;;;6.82;;
33162;SDS011;29282;45.656;11.302;2023-02-01T15:13:49;10.77;;;6.63;;
33162;SDS011;29282;45.656;11.302;2023-02-01T15:16:18;12.43;;;6.30;;
33162;SDS011;29282;45.656;11.302;2023-02-01T15:18:45;8.70;;;6.53;;
33162;SDS011;29282;45.656;11.302;2023-02-01T15:21:23;7.53;;;6.28;;
33162;SDS011;29282;45.656;11.302;2023-02-01T15:23:50;8.77;;;6.72;;
33162;SDS011;29282;45.656;11.302;2023-02-01T15:26:34;8.13;;;6.40;;
33162;SDS011;29282;45.656;11.302;2023-02-01T15:29:00;9.20;;;7.30;;
33162;SDS011;29282;45.656;11.302;2023-02-01T15:31:33;8.85;;;6.80;;
33162;SDS011;29282;45.656;11.302;2023-02-01T15:34:00;7.60;;;6.55;;
33162;SDS011;29282;45.656;11.302;2023-02-01T15:36:26;8.40;;;6.78;;
33162;SDS011;29282;45.656;11.302;2023-02-01T15:41:46;8.90;;;6.72;;
33162;SDS011;29282;45.656;11.302;2023-02-01T15:44:22;9.32;;;6.55;;
33162;SDS011;29282;45.656;11.302;2023-02-01T15:47:23;11.00;;;6.90;;
33162;SDS011;29282;45.656;11.302;2023-02-01T15:49:56;9.68;;;6.80;;
33162;SDS011;29282;45.656;11.302;2023-02-01T15:54:54;9.10;;;7.10;;
33162;SDS011;29282;45.656;11.302;2023-02-01T15:57:33;10.20;;;7.32;;
33162;SDS011;29282;45.656;11.302;2023-02-01T16:00:05;8.32;;;6.72;;
33162;SDS011;29282;45.656;11.302;2023-02-01T16:02:37;9.52;;;6.65;;
33162;SDS011;29282;45.656;11.302;2023-02-01T16:10:43;8.90;;;6.70;;
33162;SDS011;29282;45.656;11.302;2023-02-01T16:13:10;9.27;;;6.80;;
33162;SDS011;29282;45.656;11.302;2023-02-01T16:15:37;10.57;;;7.60;;
33162;SDS011;29282;45.656;11.302;2023-02-01T16:18:03;7.80;;;6.57;;
33162;SDS011;29282;45.656;11.302;2023-02-01T16:20:29;6.95;;;6.20;;
33162;SDS011;29282;45.656;11.302;2023-02-01T16:22:55;10.68;;;7.15;;
33162;SDS011;29282;45.656;11.302;2023-02-01T16:25:20;9.63;;;7.43;;
33162;SDS011;29282;45.656;11.302;2023-02-01T16:27:46;8.38;;;6.50;;
33162;SDS011;29282;45.656;11.302;2023-02-01T16:30:12;10.13;;;7.03;;
33162;SDS011;29282;45.656;11.302;2023-02-01T16:32:37;7.32;;;6.22;;
33162;SDS011;29282;45.656;11.302;2023-02-01T16:35:25;8.68;;;6.88;;
33162;SDS011;29282;45.656;11.302;2023-02-01T16:37:50;7.95;;;6.60;;
33162;SDS011;29282;45.656;11.302;2023-02-01T16:40:17;7.90;;;6.63;;
33162;SDS011;29282;45.656;11.302;2023-02-01T16:42:47;9.93;;;7.07;;
33162;SDS011;29282;45.656;11.302;2023-02-01T16:45:15;8.10;;;6.50;;
33162;SDS011;29282;45.656;11.302;2023-02-01T16:47:42;8.68;;;6.93;;
33162;SDS011;29282;45.656;11.302;2023-02-01T16:50:15;8.77;;;7.38;;
33162;SDS011;29282;45.656;11.302;2023-02-01T16:52:41;7.78;;;6.90;;
33162;SDS011;29282;45.656;11.302;2023-02-01T16:55:14;9.05;;;6.82;;
33162;SDS011;29282;45.656;11.302;2023-02-01T16:57:41;9.27;;;7.32;;
33162;SDS011;29282;45.656;11.302;2023-02-01T17:00:08;9.65;;;7.30;;
33162;SDS011;29282;45.656;11.302;2023-02-01T17:02:43;11.02;;;7.40;;
33162;SDS011;29282;45.656;11.302;2023-02-01T17:05:10;9.20;;;7.07;;
33162;SDS011;29282;45.656;11.302;2023-02-01T17:07:36;8.02;;;6.47;;
33162;SDS011;29282;45.656;11.302;2023-02-01T17:10:03;8.50;;;6.50;;
33162;SDS011;29282;45.656;11.302;2023-02-01T17:12:31;7.60;;;6.40;;
33162;SDS011;29282;45.656;11.302;2023-02-01T17:14:58;8.38;;;6.78;;
33162;SDS011;29282;45.656;11.302;2023-02-01T17:17:32;7.68;;;6.75;;
33162;SDS011;29282;45.656;11.302;2023-02-01T17:20:21;9.07;;;7.30;;
33162;SDS011;29282;45.656;11.302;2023-02-01T17:22:48;9.65;;;6.85;;
33162;SDS011;29282;45.656;11.302;2023-02-01T17:25:14;8.82;;;7.20;;
33162;SDS011;29282;45.656;11.302;2023-02-01T17:27:42;8.45;;;6.65;;
33162;SDS011;29282;45.656;11.302;2023-02-01T17:30:09;8.98;;;6.68;;
33162;SDS011;29282;45.656;11.302;2023-02-01T17:32:39;7.97;;;6.97;;
33162;SDS011;29282;45.656;11.302;2023-02-01T17:35:05;9.07;;;7.28;;
33162;SDS011;29282;45.656;11.302;2023-02-01T17:37:40;11.43;;;7.15;;
33162;SDS011;29282;45.656;11.302;2023-02-01T17:40:06;9.50;;;7.15;;
33162;SDS011;29282;45.656;11.302;2023-02-01T17:42:32;8.75;;;6.68;;
33162;SDS011;29282;45.656;11.302;2023-02-01T17:45:02;8.95;;;6.80;;
33162;SDS011;29282;45.656;11.302;2023-02-01T17:47:56;8.35;;;6.82;;
33162;SDS011;29282;45.656;11.302;2023-02-01T17:50:22;8.27;;;6.85;;
33162;SDS011;29282;45.656;11.302;2023-02-01T17:52:52;8.45;;;6.85;;
33162;SDS011;29282;45.656;11.302;2023-02-01T17:55:19;11.00;;;6.75;;
33162;SDS011;29282;45.656;11.302;2023-02-01T17:57:47;9.90;;;7.43;;
33162;SDS011;29282;45.656;11.302;2023-02-01T18:00:13;9.30;;;7.05;;
33162;SDS011;29282;45.656;11.302;2023-02-01T18:02:41;11.57;;;7.55;;
33162;SDS011;29282;45.656;11.302;2023-02-01T18:05:13;10.13;;;7.82;;
33162;SDS011;29282;45.656;11.302;2023-02-01T18:08:15;8.10;;;7.25;;
33162;SDS011;29282;45.656;11.302;2023-02-01T18:10:56;9.20;;;7.35;;
33162;SDS011;29282;45.656;11.302;2023-02-01T18:15:51;9.88;;;7.60;;
33162;SDS011;29282;45.656;11.302;2023-02-01T18:18:17;9.35;;;7.85;;
33162;SDS011;29282;45.656;11.302;2023-02-01T18:20:43;9.98;;;7.75;;